createdAt,value
2017-08-18T00:00:50.557Z,69.20
2017-08-18T00:03:18.116Z,69.20
2017-08-18T00:05:45.630Z,69.20
2017-08-18T00:08:22.029Z,69.20
2017-08-18T00:10:49.552Z,69.10
2017-08-18T00:13:17.089Z,69.20
2017-08-18T00:15:44.667Z,69.30
2017-08-18T00:18:12.209Z,69.40
2017-08-18T00:20:40.019Z,69.40
2017-08-18T00:23:07.556Z,69.40
2017-08-18T00:25:35.091Z,69.40
2017-08-18T00:28:02.651Z,70.10
2017-08-18T00:30:30.213Z,69.70
2017-08-18T00:32:58.091Z,69.50
2017-08-18T00:35:25.658Z,69.50
2017-08-18T00:37:53.192Z,69.40
2017-08-18T00:40:20.766Z,69.40
2017-08-18T00:42:48.306Z,69.40
2017-08-18T00:45:16.215Z,69.40
2017-08-18T00:47:43.743Z,69.40
2017-08-18T00:50:11.287Z,69.40
2017-08-18T00:52:38.850Z,69.60
2017-08-18T00:55:06.393Z,69.50
2017-08-18T00:57:34.976Z,69.90
2017-08-18T01:00:03.293Z,70.00
2017-08-18T01:02:30.819Z,70.10
2017-08-18T01:04:59.159Z,70.20
2017-08-18T01:07:26.684Z,70.20
2017-08-18T01:09:54.578Z,70.20
2017-08-18T01:12:22.108Z,70.30
2017-08-18T01:14:49.649Z,70.30
2017-08-18T01:17:17.200Z,70.60
2017-08-18T01:19:44.750Z,70.70
2017-08-18T01:22:12.585Z,70.90
2017-08-18T01:24:40.121Z,70.70
2017-08-18T01:27:10.829Z,70.80
2017-08-18T01:29:38.387Z,70.90
2017-08-18T01:32:06.665Z,70.60
2017-08-18T01:34:35.339Z,71.10
2017-08-18T01:37:02.895Z,71.00
2017-08-18T01:39:30.433Z,72.00
2017-08-18T01:41:58.026Z,71.20
2017-08-18T01:44:26.332Z,72.10
2017-08-18T01:46:54.214Z,71.40
2017-08-18T01:49:21.741Z,71.60
2017-08-18T01:51:49.310Z,71.50
2017-08-18T01:54:16.882Z,71.60
2017-08-18T01:56:44.395Z,71.10
2017-08-18T01:59:12.374Z,71.40
2017-08-18T02:01:39.911Z,71.40
2017-08-18T02:04:07.454Z,71.50
2017-08-18T02:06:35.021Z,71.70
2017-08-18T02:09:02.546Z,71.80
2017-08-18T02:11:30.402Z,71.90
2017-08-18T02:13:57.949Z,71.90
2017-08-18T02:16:25.479Z,72.00
2017-08-18T02:18:53.026Z,72.00
2017-08-18T02:21:20.563Z,72.10
2017-08-18T02:23:48.465Z,72.20
2017-08-18T02:26:16.014Z,72.10
2017-08-18T02:28:43.574Z,72.00
2017-08-18T02:31:11.142Z,72.00
2017-08-18T02:33:38.684Z,71.90
2017-08-18T02:36:06.694Z,72.00
2017-08-18T02:38:34.221Z,72.00
2017-08-18T02:41:01.763Z,72.10
2017-08-18T02:43:29.333Z,72.30
2017-08-18T02:45:56.867Z,72.40
2017-08-18T02:48:24.795Z,72.40
2017-08-18T02:50:52.309Z,72.50
2017-08-18T02:53:19.918Z,72.60
2017-08-18T02:55:47.482Z,72.70
2017-08-18T02:58:15.035Z,72.80
2017-08-18T03:00:42.882Z,72.90
2017-08-18T03:03:10.413Z,72.90
2017-08-18T03:05:37.946Z,72.90
2017-08-18T03:08:05.516Z,73.00
2017-08-18T03:10:33.063Z,73.00
2017-08-18T03:13:01.017Z,73.00
2017-08-18T03:15:28.571Z,73.20
2017-08-18T03:17:56.121Z,73.30
2017-08-18T03:20:23.702Z,73.50
2017-08-18T03:22:51.218Z,73.80
2017-08-18T03:25:19.126Z,73.80
2017-08-18T03:27:46.647Z,74.00
2017-08-18T03:30:14.201Z,74.20
2017-08-18T03:32:41.772Z,74.50
2017-08-18T03:35:09.298Z,74.60
2017-08-18T03:37:37.170Z,74.80
2017-08-18T03:40:04.700Z,75.10
2017-08-18T03:42:32.222Z,75.30
2017-08-18T03:44:59.809Z,75.50
2017-08-18T03:47:27.357Z,75.70
2017-08-18T03:49:55.365Z,75.90
2017-08-18T03:52:22.918Z,76.10
2017-08-18T03:54:50.488Z,76.40
2017-08-18T03:57:18.102Z,76.40
2017-08-18T03:59:45.653Z,76.40
2017-08-18T04:02:13.644Z,76.80
2017-08-18T04:04:41.177Z,76.90
2017-08-18T04:07:08.723Z,77.00
2017-08-18T04:09:37.074Z,77.10
2017-08-18T04:12:04.602Z,77.10
2017-08-18T04:14:32.465Z,77.10
2017-08-18T04:16:59.989Z,77.10
2017-08-18T04:19:28.328Z,77.20
2017-08-18T04:21:55.893Z,77.20
2017-08-18T04:24:23.424Z,77.30
2017-08-18T04:26:51.272Z,77.20
2017-08-18T04:29:21.826Z,77.30
2017-08-18T04:31:49.496Z,77.40
2017-08-18T04:34:17.079Z,77.30
2017-08-18T04:36:44.606Z,77.40
2017-08-18T04:39:12.473Z,77.50
2017-08-18T04:41:40.906Z,77.50
2017-08-18T04:44:08.441Z,77.50
2017-08-18T04:46:36.008Z,77.60
2017-08-18T04:49:03.569Z,77.60
2017-08-18T04:51:31.543Z,77.70
2017-08-18T04:53:59.097Z,77.80
2017-08-18T04:56:26.717Z,78.00
2017-08-18T04:58:54.302Z,78.00
2017-08-18T05:01:21.835Z,77.80
2017-08-18T05:03:49.735Z,77.80
2017-08-18T05:06:17.298Z,77.50
2017-08-18T05:08:44.845Z,77.50
2017-08-18T05:11:12.414Z,77.50
2017-08-18T05:13:39.977Z,77.30
2017-08-18T05:16:07.844Z,77.10
2017-08-18T05:18:35.430Z,77.20
2017-08-18T05:21:02.982Z,77.00
2017-08-18T05:23:30.570Z,76.90
2017-08-18T05:25:58.120Z,76.80
2017-08-18T05:28:25.943Z,76.70
2017-08-18T05:30:54.390Z,76.60
2017-08-18T05:33:21.953Z,76.30
2017-08-18T05:35:50.267Z,76.10
2017-08-18T05:38:17.808Z,76.10
2017-08-18T05:40:45.639Z,75.90
2017-08-18T05:43:13.167Z,75.70
2017-08-18T05:45:40.748Z,75.60
2017-08-18T05:48:08.359Z,75.30
2017-08-18T05:50:35.921Z,75.20
2017-08-18T05:53:03.936Z,75.00
2017-08-18T05:55:31.490Z,74.90
2017-08-18T05:58:03.152Z,74.80
2017-08-18T06:00:30.845Z,74.60
2017-08-18T06:02:58.407Z,74.60
2017-08-18T06:05:26.339Z,74.40
2017-08-18T06:07:53.910Z,74.40
2017-08-18T06:10:21.452Z,74.20
2017-08-18T06:12:49.007Z,74.20
2017-08-18T06:18:05.939Z,74.00
2017-08-18T06:20:33.494Z,73.80
2017-08-18T06:23:01.067Z,73.60
2017-08-18T06:25:28.658Z,73.40
2017-08-18T06:28:00.172Z,73.20
2017-08-18T06:30:28.090Z,72.90
2017-08-18T06:32:55.650Z,72.70
2017-08-18T06:35:25.904Z,73.30
2017-08-18T06:37:53.523Z,72.30
2017-08-18T06:40:21.067Z,72.10
2017-08-18T06:42:49.749Z,71.70
2017-08-18T06:45:18.270Z,71.70
2017-08-18T06:47:46.573Z,71.20
2017-08-18T06:50:14.173Z,71.20
2017-08-18T06:52:55.314Z,70.80
2017-08-18T06:55:23.137Z,70.50
2017-08-18T06:57:51.617Z,70.30
2017-08-18T07:00:19.144Z,69.80
2017-08-18T07:02:46.703Z,69.60
2017-08-18T07:05:14.249Z,69.30
2017-08-18T07:07:42.209Z,69.00
2017-08-18T07:10:09.747Z,68.70
2017-08-18T07:12:55.708Z,68.40
2017-08-18T07:15:23.281Z,67.80
2017-08-18T07:17:51.625Z,68.00
2017-08-18T07:20:19.208Z,67.30
2017-08-18T07:22:46.836Z,67.00
2017-08-18T07:25:14.773Z,66.70
2017-08-18T07:27:43.157Z,65.60
2017-08-18T07:30:15.314Z,65.60
2017-08-18T07:32:43.614Z,65.20
2017-08-18T07:35:11.268Z,65.90
2017-08-18T07:37:40.988Z,65.30
2017-08-18T07:40:14.783Z,63.90
2017-08-18T07:42:45.880Z,63.60
2017-08-18T07:45:14.220Z,62.60
2017-08-18T07:47:41.818Z,62.60
2017-08-18T07:50:11.404Z,62.40
2017-08-18T07:52:39.150Z,62.10
2017-08-18T07:55:12.084Z,62.10
2017-08-18T07:57:39.816Z,61.80
2017-08-18T08:00:07.465Z,61.90
2017-08-18T08:02:35.251Z,62.10
2017-08-18T08:05:03.787Z,61.50
2017-08-18T08:07:31.812Z,60.90
2017-08-18T08:09:59.402Z,60.80
2017-08-18T08:12:27.820Z,61.10
2017-08-18T08:14:55.470Z,60.20
2017-08-18T08:17:27.626Z,60.30
2017-08-18T08:19:57.523Z,60.30
2017-08-18T08:22:25.050Z,59.90
2017-08-18T08:24:53.580Z,59.70
2017-08-18T08:27:21.123Z,59.70
2017-08-18T08:29:48.656Z,59.50
2017-08-18T08:32:16.640Z,59.70
2017-08-18T08:34:44.200Z,60.00
2017-08-18T08:37:11.747Z,59.10
2017-08-18T08:39:39.292Z,59.10
2017-08-18T08:42:06.827Z,59.10
2017-08-18T08:44:34.667Z,58.70
2017-08-18T08:47:02.214Z,58.60
2017-08-18T08:49:29.722Z,58.40
2017-08-18T08:52:02.961Z,58.40
2017-08-18T08:54:30.492Z,57.90
2017-08-18T08:56:58.395Z,57.70
2017-08-18T08:59:25.917Z,57.20
2017-08-18T09:01:54.193Z,57.10
2017-08-18T09:04:22.507Z,56.80
2017-08-18T09:06:50.061Z,56.70
2017-08-18T09:09:17.935Z,56.30
2017-08-18T09:11:45.526Z,56.20
2017-08-18T09:14:13.067Z,56.00
2017-08-18T09:16:40.642Z,55.80
2017-08-18T09:19:08.159Z,55.80
2017-08-18T09:21:36.052Z,55.40
2017-08-18T09:24:03.596Z,55.20
2017-08-18T09:26:31.114Z,54.80
2017-08-18T09:28:58.673Z,54.40
2017-08-18T09:31:26.226Z,54.20
2017-08-18T09:33:54.082Z,54.00
2017-08-18T09:36:21.604Z,53.50
2017-08-18T09:38:49.147Z,53.40
2017-08-18T09:41:16.737Z,53.20
2017-08-18T09:43:44.276Z,53.20
2017-08-18T09:46:12.194Z,53.30
2017-08-18T09:48:55.518Z,53.30
2017-08-18T09:51:35.059Z,53.10
2017-08-18T09:54:14.410Z,52.80
2017-08-18T09:59:40.923Z,52.90
2017-08-18T10:02:08.852Z,52.80
2017-08-18T10:04:36.390Z,52.30
2017-08-18T10:07:03.915Z,52.20
2017-08-18T10:09:31.484Z,52.50
2017-08-18T10:11:59.016Z,52.50
2017-08-18T10:14:27.506Z,52.50
2017-08-18T10:16:55.032Z,52.00
2017-08-18T10:19:23.476Z,51.90
2017-08-18T10:21:51.047Z,51.90
2017-08-18T10:24:18.563Z,51.30
2017-08-18T10:26:46.457Z,50.70
2017-08-18T10:29:13.992Z,50.50
2017-08-18T10:31:41.539Z,50.20
2017-08-18T10:34:09.137Z,50.00
2017-08-18T10:36:36.671Z,49.70
2017-08-18T10:39:04.510Z,49.70
2017-08-18T10:41:32.054Z,49.10
2017-08-18T10:43:59.579Z,48.90
2017-08-18T10:46:27.161Z,48.70
2017-08-18T10:48:54.690Z,48.70
2017-08-18T10:51:22.573Z,48.30
2017-08-18T10:53:50.100Z,48.90
2017-08-18T10:56:17.595Z,48.40
2017-08-18T10:58:45.150Z,48.10
2017-08-18T11:01:12.643Z,47.90
2017-08-18T11:03:40.460Z,47.80
2017-08-18T11:06:07.997Z,47.70
2017-08-18T11:08:35.526Z,47.30
2017-08-18T11:11:03.094Z,46.90
2017-08-18T11:13:30.635Z,46.80
2017-08-18T11:15:58.488Z,46.10
2017-08-18T11:18:26.022Z,45.70
2017-08-18T11:20:53.562Z,45.90
2017-08-18T11:23:21.902Z,45.70
2017-08-18T11:25:49.420Z,45.70
2017-08-18T11:28:17.327Z,45.90
2017-08-18T11:30:45.202Z,45.70
2017-08-18T11:33:12.749Z,46.00
2017-08-18T11:35:40.320Z,45.80
2017-08-18T11:38:07.826Z,45.30
2017-08-18T11:40:35.669Z,44.90
2017-08-18T11:43:03.226Z,44.40
2017-08-18T11:45:30.806Z,44.40
2017-08-18T11:47:58.396Z,44.10
2017-08-18T11:50:25.938Z,43.60
2017-08-18T11:52:53.752Z,43.40
2017-08-18T11:55:21.307Z,43.30
2017-08-18T11:57:48.841Z,43.40
2017-08-18T12:00:16.412Z,43.60
2017-08-18T12:02:43.959Z,43.70
2017-08-18T12:05:11.900Z,43.80
2017-08-18T12:07:39.437Z,43.80
2017-08-18T12:10:06.960Z,44.00
2017-08-18T12:12:34.519Z,44.20
2017-08-18T12:15:02.046Z,44.40
2017-08-18T12:17:30.643Z,43.90
2017-08-18T12:19:58.955Z,43.90
2017-08-18T12:22:26.490Z,43.80
2017-08-18T12:24:54.062Z,43.70
2017-08-18T12:27:21.626Z,42.70
2017-08-18T12:29:49.531Z,41.60
2017-08-18T12:32:17.119Z,40.40
2017-08-18T12:34:45.435Z,40.90
2017-08-18T12:37:13.006Z,40.40
2017-08-18T12:39:40.535Z,40.70
2017-08-18T12:42:08.458Z,41.00
2017-08-18T12:44:36.157Z,41.50
2017-08-18T12:47:03.697Z,41.90
2017-08-18T12:49:31.252Z,42.30
2017-08-18T12:51:58.802Z,42.50
2017-08-18T12:54:26.650Z,43.50
2017-08-18T12:56:54.194Z,43.20
2017-08-18T12:59:21.771Z,44.00
2017-08-18T13:01:49.360Z,43.40
2017-08-18T13:04:16.877Z,43.50
2017-08-18T13:06:50.084Z,43.50
2017-08-18T13:09:18.554Z,43.60
2017-08-18T13:11:46.135Z,43.70
2017-08-18T13:14:13.735Z,44.00
2017-08-18T13:16:44.727Z,44.30
2017-08-18T13:19:16.329Z,44.30
2017-08-18T13:21:43.841Z,44.60
2017-08-18T13:24:11.368Z,44.10
2017-08-18T13:26:38.963Z,42.90
2017-08-18T13:29:06.537Z,42.30
2017-08-18T13:31:34.538Z,41.20
2017-08-18T13:34:02.084Z,41.00
2017-08-18T13:36:29.637Z,41.10
2017-08-18T13:38:57.264Z,41.10
2017-08-18T13:41:24.798Z,41.80
2017-08-18T13:43:52.730Z,42.20
2017-08-18T13:46:20.259Z,41.80
2017-08-18T13:48:47.783Z,42.00
2017-08-18T13:51:16.125Z,42.20
2017-08-18T13:53:43.640Z,42.40
2017-08-18T13:56:12.294Z,42.70
2017-08-18T13:58:39.848Z,42.70
2017-08-18T14:01:14.403Z,42.30
2017-08-18T14:03:42.688Z,40.70
2017-08-18T14:06:10.987Z,40.40
2017-08-18T14:08:38.537Z,40.30
2017-08-18T14:11:06.053Z,40.20
2017-08-18T14:13:34.021Z,40.60
2017-08-18T14:16:01.544Z,41.10
2017-08-18T14:18:29.098Z,40.80
2017-08-18T14:20:56.658Z,40.60
2017-08-18T14:23:24.178Z,40.60
2017-08-18T14:25:57.834Z,40.70
2017-08-18T14:28:25.397Z,41.10
2017-08-18T14:30:52.915Z,41.30
2017-08-18T14:33:21.240Z,40.40
2017-08-18T14:35:48.746Z,40.40
2017-08-18T14:38:16.576Z,39.70
2017-08-18T14:40:44.128Z,39.00
2017-08-18T14:43:11.693Z,38.70
2017-08-18T14:45:39.232Z,37.40
2017-08-18T14:48:06.761Z,36.60
2017-08-18T14:50:34.696Z,37.00
2017-08-18T14:53:02.223Z,37.50
2017-08-18T14:55:29.792Z,37.60
2017-08-18T14:57:57.350Z,37.00
2017-08-18T15:00:24.893Z,36.40
2017-08-18T15:02:52.804Z,36.20
2017-08-18T15:05:20.331Z,36.10
2017-08-18T15:07:47.862Z,35.80
2017-08-18T15:10:15.411Z,34.90
2017-08-18T15:12:42.946Z,34.10
2017-08-18T15:15:10.780Z,33.10
2017-08-18T15:17:38.295Z,32.40
2017-08-18T15:20:05.822Z,32.20
2017-08-18T15:22:33.362Z,32.30
2017-08-18T15:25:00.910Z,32.10
2017-08-18T15:27:28.797Z,32.20
2017-08-18T15:29:56.318Z,32.20
2017-08-18T15:32:23.855Z,32.60
2017-08-18T15:35:03.159Z,31.90
2017-08-18T15:37:34.625Z,31.70
2017-08-18T15:40:02.734Z,31.60
2017-08-18T15:42:30.323Z,31.50
2017-08-18T15:44:58.526Z,31.70
2017-08-18T15:47:26.202Z,31.70
2017-08-18T15:49:53.861Z,32.20
2017-08-18T15:52:21.692Z,32.80
2017-08-18T15:54:51.369Z,33.50
2017-08-18T15:57:19.707Z,34.10
2017-08-18T15:59:47.251Z,34.10
2017-08-18T16:02:14.824Z,34.60
2017-08-18T16:04:42.776Z,35.30
2017-08-18T16:07:10.349Z,35.30
2017-08-18T16:09:38.448Z,35.00
2017-08-18T16:12:06.023Z,35.60
2017-08-18T16:14:33.528Z,36.00
2017-08-18T16:17:01.441Z,36.40
2017-08-18T16:19:28.985Z,36.60
2017-08-18T16:21:56.502Z,36.80
2017-08-18T16:24:24.073Z,37.10
2017-08-18T16:26:51.611Z,37.70
2017-08-18T16:29:19.530Z,38.30
2017-08-18T16:31:47.102Z,38.30
2017-08-18T16:34:14.636Z,38.40
2017-08-18T16:36:42.219Z,38.60
2017-08-18T16:39:09.743Z,39.00
2017-08-18T16:41:37.638Z,39.20
2017-08-18T16:44:05.201Z,39.60
2017-08-18T16:46:32.720Z,40.00
2017-08-18T16:49:01.049Z,40.50
2017-08-18T16:51:28.576Z,40.40
2017-08-18T16:53:56.478Z,40.90
2017-08-18T16:56:23.998Z,41.30
2017-08-18T16:58:51.525Z,41.60
2017-08-18T17:01:19.069Z,41.90
2017-08-18T17:03:46.619Z,42.20
2017-08-18T17:06:14.553Z,42.60
2017-08-18T17:08:42.112Z,43.00
2017-08-18T17:11:10.040Z,43.40
2017-08-18T17:13:37.923Z,43.70
2017-08-18T17:16:05.763Z,44.00
2017-08-18T17:18:34.665Z,44.40
2017-08-18T17:21:05.234Z,44.90
2017-08-18T17:23:33.391Z,45.40
2017-08-18T17:26:01.096Z,45.80
2017-08-18T17:28:28.662Z,45.80
2017-08-18T17:30:56.248Z,46.20
2017-08-18T17:33:23.819Z,46.20
2017-08-18T17:35:51.695Z,46.40
2017-08-18T17:38:19.307Z,46.60
2017-08-18T17:40:46.855Z,46.70
2017-08-18T17:43:14.436Z,45.80
2017-08-18T17:45:42.001Z,45.40
2017-08-18T17:48:09.848Z,44.90
2017-08-18T17:50:37.351Z,44.60
2017-08-18T17:53:04.879Z,45.40
2017-08-18T17:55:32.448Z,44.60
2017-08-18T17:58:00.934Z,44.30
2017-08-18T18:00:29.525Z,44.30
2017-08-18T18:05:35.067Z,44.30
2017-08-18T18:08:03.267Z,44.70
2017-08-18T18:10:38.137Z,45.20
2017-08-18T18:13:06.147Z,45.00
2017-08-18T18:15:34.150Z,45.00
2017-08-18T18:18:02.373Z,45.10
2017-08-18T18:20:30.788Z,45.20
2017-08-18T18:22:58.920Z,45.20
2017-08-18T18:25:27.041Z,45.20
2017-08-18T18:27:55.523Z,45.60
2017-08-18T18:30:23.915Z,45.90
2017-08-18T18:32:53.311Z,45.70
2017-08-18T18:35:21.484Z,45.90
2017-08-18T18:37:49.729Z,46.20
2017-08-18T18:40:18.508Z,46.40
2017-08-18T18:42:46.673Z,47.10
2017-08-18T18:45:15.189Z,48.00
2017-08-18T18:47:44.034Z,48.90
2017-08-18T18:50:14.761Z,49.10
2017-08-18T18:52:44.029Z,50.10
2017-08-18T18:55:11.852Z,50.90
2017-08-18T18:57:40.602Z,51.40
2017-08-18T19:00:09.426Z,51.60
2017-08-18T19:02:38.209Z,51.30
2017-08-18T19:05:06.261Z,52.10
2017-08-18T19:07:35.135Z,52.50
2017-08-18T19:10:04.589Z,52.70
2017-08-18T19:12:32.912Z,53.00
2017-08-18T19:15:01.867Z,53.20
2017-08-18T19:17:29.874Z,54.10
2017-08-18T19:19:59.738Z,54.70
2017-08-18T19:25:01.046Z,54.90
2017-08-18T19:27:29.814Z,55.00
2017-08-18T19:29:57.915Z,55.70
2017-08-18T19:35:00.451Z,56.00
2017-08-18T19:40:01.897Z,57.20
2017-08-18T19:42:29.927Z,56.90
2017-08-18T19:44:58.054Z,56.80
2017-08-18T19:47:26.158Z,56.60
2017-08-18T19:49:54.111Z,56.40
2017-08-18T19:52:22.430Z,57.00
2017-08-18T19:54:51.097Z,57.70
2017-08-18T19:57:20.097Z,58.40
2017-08-18T19:59:48.392Z,61.00
2017-08-18T20:02:21.909Z,63.30
2017-08-18T20:04:50.140Z,64.20
2017-08-18T20:07:17.754Z,67.30
2017-08-18T20:09:45.348Z,69.90
2017-08-18T20:12:12.970Z,72.30
2017-08-18T20:14:40.571Z,73.80
2017-08-18T20:17:08.548Z,75.10
2017-08-18T20:19:37.409Z,77.60
2017-08-18T20:22:04.990Z,77.70
2017-08-18T20:24:33.381Z,78.80
2017-08-18T20:27:00.970Z,79.30
2017-08-18T20:29:28.940Z,80.10
2017-08-18T20:31:56.488Z,80.70
2017-08-18T20:34:24.810Z,81.40
2017-08-18T20:36:52.383Z,81.40
2017-08-18T20:39:19.928Z,82.10
2017-08-18T20:41:47.770Z,82.40
2017-08-18T20:44:15.352Z,82.80
2017-08-18T20:46:42.872Z,83.30
2017-08-18T20:49:10.423Z,84.10
2017-08-18T20:51:37.954Z,83.90
2017-08-18T20:54:05.847Z,84.20
2017-08-18T20:56:33.485Z,84.50
2017-08-18T20:59:01.844Z,85.00
2017-08-18T21:01:29.444Z,84.90
2017-08-18T21:03:56.981Z,85.20
2017-08-18T21:06:24.934Z,85.50
2017-08-18T21:08:52.531Z,85.70
2017-08-18T21:11:20.098Z,85.80
2017-08-18T21:13:47.632Z,86.10
2017-08-18T21:16:15.199Z,85.90
2017-08-18T21:18:43.072Z,86.10
2017-08-18T21:21:10.632Z,86.20
2017-08-18T21:23:38.194Z,86.40
2017-08-18T21:26:05.740Z,86.70
2017-08-18T21:28:33.318Z,86.70
2017-08-18T21:31:01.200Z,86.90
2017-08-18T21:33:28.740Z,87.10
2017-08-18T21:35:56.284Z,87.20
2017-08-18T21:38:23.862Z,87.50
2017-08-18T21:40:51.427Z,87.60
2017-08-18T21:43:19.291Z,87.80
2017-08-18T21:45:46.821Z,87.80
2017-08-18T21:48:14.358Z,87.80
2017-08-18T21:50:41.923Z,87.80
2017-08-18T21:53:09.476Z,88.00
2017-08-18T21:55:38.200Z,88.00
2017-08-18T21:58:05.725Z,88.10
2017-08-18T22:00:33.263Z,88.10
2017-08-18T22:03:00.832Z,88.30
2017-08-18T22:05:29.148Z,88.10
2017-08-18T22:07:57.055Z,88.20
2017-08-18T22:10:24.654Z,88.10
2017-08-18T22:12:52.185Z,88.20
2017-08-18T22:15:19.730Z,88.00
2017-08-18T22:17:47.265Z,88.00
2017-08-18T22:20:15.203Z,88.10
2017-08-18T22:22:43.506Z,87.90
2017-08-18T22:25:11.020Z,88.00
2017-08-18T22:27:38.580Z,87.90
2017-08-18T22:30:06.141Z,87.80
2017-08-18T22:32:33.964Z,87.90
2017-08-18T22:35:01.487Z,87.70
2017-08-18T22:37:29.026Z,87.60
2017-08-18T22:39:56.578Z,87.60
2017-08-18T22:42:24.143Z,87.60
2017-08-18T22:44:51.986Z,87.60
2017-08-18T22:47:19.554Z,87.40
2017-08-18T22:49:47.097Z,87.20
2017-08-18T22:52:14.665Z,87.40
2017-08-18T22:54:42.169Z,87.40
2017-08-18T22:57:10.098Z,87.30
2017-08-18T22:59:38.248Z,87.50
2017-08-18T23:02:05.805Z,88.20
2017-08-18T23:04:33.355Z,87.20
2017-08-18T23:07:00.894Z,87.10
2017-08-18T23:09:29.545Z,86.80
2017-08-18T23:11:57.109Z,86.70
2017-08-18T23:14:24.626Z,86.70
2017-08-18T23:16:52.176Z,86.60
2017-08-18T23:19:19.688Z,86.60
2017-08-18T23:21:47.527Z,86.50
2017-08-18T23:24:15.160Z,86.60
2017-08-18T23:26:42.698Z,86.40
2017-08-18T23:29:10.265Z,86.30
2017-08-18T23:31:38.559Z,85.90
2017-08-18T23:34:06.382Z,85.90
2017-08-18T23:36:33.904Z,85.80
2017-08-18T23:39:01.465Z,85.40
2017-08-18T23:41:29.038Z,85.20
2017-08-18T23:43:56.568Z,85.20
2017-08-18T23:46:24.472Z,85.20
2017-08-18T23:48:51.998Z,85.00
2017-08-18T23:51:19.556Z,85.00
2017-08-18T23:53:47.117Z,85.00
2017-08-18T23:56:14.657Z,85.00
2017-08-18T23:58:42.494Z,84.90
